sensor_id;sensor_type;location;lat;lon;timestamp;P1;durP1;ratioP1;P2;durP2;ratioP2
8171;SDS011;4127;47.908;10.850;2023-08-24T00:01:38;6.93;;;6.40;;
8171;SDS011;4127;47.908;10.850;2023-08-24T00:04:05;6.20;;;5.70;;
8171;SDS011;4127;47.908;10.850;2023-08-24T00:06:34;6.47;;;5.93;;
8171;SDS011;4127;47.908;10.850;2023-08-24T00:09:01;7.07;;;6.40;;
8171;SDS011;4127;47.908;10.850;2023-08-24T00:11:27;6.53;;;6.03;;
8171;SDS011;4127;47.908;10.850;2023-08-24T00:13:54;6.70;;;6.10;;
8171;SDS011;4127;47.908;10.850;2023-08-24T00:16:21;6.50;;;6.00;;
8171;SDS011;4127;47.908;10.850;2023-08-24T00:18:48;6.83;;;6.13;;
8171;SDS011;4127;47.908;10.850;2023-08-24T00:21:15;6.33;;;5.73;;
8171;SDS011;4127;47.908;10.850;2023-08-24T00:23:50;6.70;;;6.20;;
8171;SDS011;4127;47.908;10.850;2023-08-24T00:26:17;6.97;;;6.37;;
8171;SDS011;4127;47.908;10.850;2023-08-24T00:28:44;7.23;;;6.63;;
8171;SDS011;4127;47.908;10.850;2023-08-24T00:31:12;6.53;;;6.03;;
8171;SDS011;4127;47.908;10.850;2023-08-24T00:33:39;6.30;;;5.80;;
8171;SDS011;4127;47.908;10.850;2023-08-24T00:36:06;6.80;;;6.20;;
8171;SDS011;4127;47.908;10.850;2023-08-24T00:38:33;6.70;;;6.10;;
8171;SDS011;4127;47.908;10.850;2023-08-24T00:41:00;6.67;;;6.10;;
8171;SDS011;4127;47.908;10.850;2023-08-24T00:43:27;7.03;;;6.33;;
8171;SDS011;4127;47.908;10.850;2023-08-24T00:45:55;6.53;;;6.03;;
8171;SDS011;4127;47.908;10.850;2023-08-24T00:48:25;6.43;;;5.93;;
8171;SDS011;4127;47.908;10.850;2023-08-24T00:51:01;7.40;;;6.70;;
8171;SDS011;4127;47.908;10.850;2023-08-24T00:53:28;7.07;;;6.50;;
8171;SDS011;4127;47.908;10.850;2023-08-24T00:55:56;6.87;;;6.30;;
8171;SDS011;4127;47.908;10.850;2023-08-24T00:58:24;6.30;;;5.80;;
8171;SDS011;4127;47.908;10.850;2023-08-24T01:00:53;7.43;;;6.73;;
8171;SDS011;4127;47.908;10.850;2023-08-24T01:03:22;6.77;;;6.17;;
8171;SDS011;4127;47.908;10.850;2023-08-24T01:05:51;6.77;;;6.17;;
8171;SDS011;4127;47.908;10.850;2023-08-24T01:08:18;6.43;;;5.93;;
8171;SDS011;4127;47.908;10.850;2023-08-24T01:13:53;7.43;;;6.70;;
8171;SDS011;4127;47.908;10.850;2023-08-24T01:16:31;6.63;;;6.03;;
8171;SDS011;4127;47.908;10.850;2023-08-24T01:19:00;7.13;;;6.50;;
8171;SDS011;4127;47.908;10.850;2023-08-24T01:21:29;6.70;;;6.17;;
8171;SDS011;4127;47.908;10.850;2023-08-24T01:26:34;6.80;;;6.10;;
8171;SDS011;4127;47.908;10.850;2023-08-24T01:29:03;7.07;;;6.47;;
8171;SDS011;4127;47.908;10.850;2023-08-24T01:31:31;6.30;;;5.73;;
8171;SDS011;4127;47.908;10.850;2023-08-24T01:33:58;7.33;;;6.63;;
8171;SDS011;4127;47.908;10.850;2023-08-24T01:36:26;6.07;;;5.53;;
8171;SDS011;4127;47.908;10.850;2023-08-24T01:39:07;6.93;;;6.17;;
8171;SDS011;4127;47.908;10.850;2023-08-24T01:41:41;6.87;;;6.27;;
8171;SDS011;4127;47.908;10.850;2023-08-24T01:44:12;7.60;;;7.00;;
8171;SDS011;4127;47.908;10.850;2023-08-24T01:46:40;6.57;;;5.97;;
8171;SDS011;4127;47.908;10.850;2023-08-24T01:49:11;6.70;;;6.20;;
8171;SDS011;4127;47.908;10.850;2023-08-24T01:51:40;7.77;;;6.27;;
8171;SDS011;4127;47.908;10.850;2023-08-24T01:54:08;6.77;;;6.27;;
8171;SDS011;4127;47.908;10.850;2023-08-24T01:56:36;6.73;;;6.23;;
8171;SDS011;4127;47.908;10.850;2023-08-24T01:59:03;8.27;;;6.50;;
8171;SDS011;4127;47.908;10.850;2023-08-24T02:01:29;7.43;;;6.47;;
8171;SDS011;4127;47.908;10.850;2023-08-24T02:03:57;6.33;;;5.83;;
8171;SDS011;4127;47.908;10.850;2023-08-24T02:06:25;7.07;;;6.37;;
8171;SDS011;4127;47.908;10.850;2023-08-24T02:08:53;7.10;;;6.50;;
8171;SDS011;4127;47.908;10.850;2023-08-24T02:11:20;6.83;;;6.33;;
8171;SDS011;4127;47.908;10.850;2023-08-24T02:13:47;7.10;;;6.50;;
8171;SDS011;4127;47.908;10.850;2023-08-24T02:16:14;6.40;;;5.90;;
8171;SDS011;4127;47.908;10.850;2023-08-24T02:18:40;7.77;;;7.07;;
8171;SDS011;4127;47.908;10.850;2023-08-24T02:21:08;7.47;;;6.73;;
8171;SDS011;4127;47.908;10.850;2023-08-24T02:23:38;6.70;;;6.03;;
8171;SDS011;4127;47.908;10.850;2023-08-24T02:26:05;6.70;;;6.10;;
8171;SDS011;4127;47.908;10.850;2023-08-24T02:28:33;6.17;;;5.73;;
8171;SDS011;4127;47.908;10.850;2023-08-24T02:31:01;6.73;;;6.13;;
8171;SDS011;4127;47.908;10.850;2023-08-24T02:33:29;6.90;;;6.00;;
8171;SDS011;4127;47.908;10.850;2023-08-24T02:35:57;6.43;;;5.97;;
8171;SDS011;4127;47.908;10.850;2023-08-24T02:38:24;7.17;;;6.50;;
8171;SDS011;4127;47.908;10.850;2023-08-24T02:41:01;7.17;;;6.47;;
8171;SDS011;4127;47.908;10.850;2023-08-24T02:43:32;7.40;;;6.20;;
8171;SDS011;4127;47.908;10.850;2023-08-24T02:46:03;7.43;;;6.83;;
8171;SDS011;4127;47.908;10.850;2023-08-24T02:48:31;7.07;;;6.50;;
8171;SDS011;4127;47.908;10.850;2023-08-24T02:50:59;7.63;;;6.80;;
8171;SDS011;4127;47.908;10.850;2023-08-24T02:53:29;6.87;;;6.27;;
8171;SDS011;4127;47.908;10.850;2023-08-24T02:55:56;7.20;;;6.63;;
8171;SDS011;4127;47.908;10.850;2023-08-24T02:58:23;7.00;;;6.33;;
8171;SDS011;4127;47.908;10.850;2023-08-24T03:00:50;6.80;;;6.23;;
8171;SDS011;4127;47.908;10.850;2023-08-24T03:03:17;6.90;;;6.33;;
8171;SDS011;4127;47.908;10.850;2023-08-24T03:05:57;7.30;;;6.77;;
8171;SDS011;4127;47.908;10.850;2023-08-24T03:08:29;7.70;;;7.00;;
8171;SDS011;4127;47.908;10.850;2023-08-24T03:11:00;7.77;;;7.07;;
8171;SDS011;4127;47.908;10.850;2023-08-24T03:13:28;7.43;;;6.83;;
8171;SDS011;4127;47.908;10.850;2023-08-24T03:15:55;7.30;;;6.63;;
8171;SDS011;4127;47.908;10.850;2023-08-24T03:18:23;7.00;;;6.40;;
8171;SDS011;4127;47.908;10.850;2023-08-24T03:20:50;8.00;;;7.20;;
8171;SDS011;4127;47.908;10.850;2023-08-24T03:23:17;8.10;;;6.70;;
8171;SDS011;4127;47.908;10.850;2023-08-24T03:25:44;7.33;;;6.63;;
8171;SDS011;4127;47.908;10.850;2023-08-24T03:28:11;7.03;;;6.43;;
8171;SDS011;4127;47.908;10.850;2023-08-24T03:30:39;6.27;;;5.87;;
8171;SDS011;4127;47.908;10.850;2023-08-24T03:33:11;6.90;;;6.30;;
8171;SDS011;4127;47.908;10.850;2023-08-24T03:35:39;7.47;;;6.73;;
8171;SDS011;4127;47.908;10.850;2023-08-24T03:38:06;7.83;;;6.60;;
8171;SDS011;4127;47.908;10.850;2023-08-24T03:40:33;7.30;;;6.70;;
8171;SDS011;4127;47.908;10.850;2023-08-24T03:43:01;7.67;;;6.97;;
8171;SDS011;4127;47.908;10.850;2023-08-24T03:45:28;7.10;;;6.27;;
8171;SDS011;4127;47.908;10.850;2023-08-24T03:47:56;7.17;;;6.67;;
8171;SDS011;4127;47.908;10.850;2023-08-24T03:50:23;7.83;;;7.23;;
8171;SDS011;4127;47.908;10.850;2023-08-24T03:52:50;7.40;;;6.80;;
8171;SDS011;4127;47.908;10.850;2023-08-24T03:55:17;7.37;;;6.77;;
8171;SDS011;4127;47.908;10.850;2023-08-24T03:57:44;7.70;;;7.10;;
8171;SDS011;4127;47.908;10.850;2023-08-24T04:00:11;7.37;;;6.77;;
8171;SDS011;4127;47.908;10.850;2023-08-24T04:02:43;7.40;;;6.80;;
8171;SDS011;4127;47.908;10.850;2023-08-24T04:05:11;7.37;;;6.67;;
8171;SDS011;4127;47.908;10.850;2023-08-24T04:07:38;8.43;;;7.63;;
8171;SDS011;4127;47.908;10.850;2023-08-24T04:10:06;7.77;;;7.07;;
8171;SDS011;4127;47.908;10.850;2023-08-24T04:12:34;7.67;;;6.97;;
8171;SDS011;4127;47.908;10.850;2023-08-24T04:15:01;6.87;;;6.37;;
8171;SDS011;4127;47.908;10.850;2023-08-24T04:17:29;6.83;;;6.33;;
8171;SDS011;4127;47.908;10.850;2023-08-24T04:19:56;7.40;;;6.80;;
8171;SDS011;4127;47.908;10.850;2023-08-24T04:22:22;7.83;;;7.07;;
8171;SDS011;4127;47.908;10.850;2023-08-24T04:24:49;7.60;;;6.90;;
8171;SDS011;4127;47.908;10.850;2023-08-24T04:27:16;7.20;;;6.60;;
8171;SDS011;4127;47.908;10.850;2023-08-24T04:29:43;7.60;;;7.00;;
8171;SDS011;4127;47.908;10.850;2023-08-24T04:32:10;8.10;;;7.37;;
8171;SDS011;4127;47.908;10.850;2023-08-24T04:34:37;8.20;;;7.40;;
8171;SDS011;4127;47.908;10.850;2023-08-24T04:37:05;7.67;;;6.97;;
8171;SDS011;4127;47.908;10.850;2023-08-24T04:39:32;8.20;;;7.50;;
8171;SDS011;4127;47.908;10.850;2023-08-24T04:41:59;6.97;;;6.47;;
8171;SDS011;4127;47.908;10.850;2023-08-24T04:44:26;7.30;;;6.70;;
8171;SDS011;4127;47.908;10.850;2023-08-24T04:46:52;6.87;;;6.33;;
8171;SDS011;4127;47.908;10.850;2023-08-24T04:49:19;8.07;;;7.20;;
8171;SDS011;4127;47.908;10.850;2023-08-24T04:51:46;7.27;;;6.67;;
8171;SDS011;4127;47.908;10.850;2023-08-24T04:54:13;7.50;;;6.90;;
8171;SDS011;4127;47.908;10.850;2023-08-24T04:56:40;7.03;;;6.53;;
8171;SDS011;4127;47.908;10.850;2023-08-24T04:59:07;6.90;;;6.33;;
8171;SDS011;4127;47.908;10.850;2023-08-24T05:01:34;6.87;;;6.37;;
8171;SDS011;4127;47.908;10.850;2023-08-24T05:04:01;8.47;;;7.77;;
8171;SDS011;4127;47.908;10.850;2023-08-24T05:06:28;7.70;;;7.00;;
8171;SDS011;4127;47.908;10.850;2023-08-24T05:08:55;7.20;;;6.70;;
8171;SDS011;4127;47.908;10.850;2023-08-24T05:11:23;7.00;;;6.50;;
8171;SDS011;4127;47.908;10.850;2023-08-24T05:13:53;7.63;;;7.03;;
8171;SDS011;4127;47.908;10.850;2023-08-24T05:16:19;7.30;;;6.70;;
8171;SDS011;4127;47.908;10.850;2023-08-24T05:18:47;6.40;;;5.90;;
8171;SDS011;4127;47.908;10.850;2023-08-24T05:21:14;7.00;;;6.33;;
8171;SDS011;4127;47.908;10.850;2023-08-24T05:23:41;7.67;;;6.97;;
8171;SDS011;4127;47.908;10.850;2023-08-24T05:26:08;7.10;;;6.50;;
8171;SDS011;4127;47.908;10.850;2023-08-24T05:28:35;7.43;;;6.83;;
8171;SDS011;4127;47.908;10.850;2023-08-24T05:31:02;7.77;;;6.97;;
8171;SDS011;4127;47.908;10.850;2023-08-24T05:33:28;7.83;;;7.23;;
8171;SDS011;4127;47.908;10.850;2023-08-24T05:35:57;7.50;;;7.00;;
8171;SDS011;4127;47.908;10.850;2023-08-24T05:38:25;7.70;;;7.10;;
8171;SDS011;4127;47.908;10.850;2023-08-24T05:40:51;7.27;;;6.63;;
8171;SDS011;4127;47.908;10.850;2023-08-24T05:43:19;7.40;;;6.80;;
8171;SDS011;4127;47.908;10.850;2023-08-24T05:45:46;7.77;;;7.17;;
8171;SDS011;4127;47.908;10.850;2023-08-24T05:48:14;7.77;;;7.17;;
8171;SDS011;4127;47.908;10.850;2023-08-24T05:50:45;8.20;;;7.50;;
8171;SDS011;4127;47.908;10.850;2023-08-24T05:53:12;8.10;;;7.40;;
8171;SDS011;4127;47.908;10.850;2023-08-24T05:55:40;9.43;;;8.47;;
8171;SDS011;4127;47.908;10.850;2023-08-24T05:58:07;8.47;;;7.70;;
8171;SDS011;4127;47.908;10.850;2023-08-24T06:00:35;8.03;;;7.43;;
8171;SDS011;4127;47.908;10.850;2023-08-24T06:03:02;7.80;;;7.20;;
8171;SDS011;4127;47.908;10.850;2023-08-24T06:05:30;8.47;;;7.77;;
8171;SDS011;4127;47.908;10.850;2023-08-24T06:07:58;8.00;;;7.30;;
8171;SDS011;4127;47.908;10.850;2023-08-24T06:10:25;8.10;;;7.40;;
8171;SDS011;4127;47.908;10.850;2023-08-24T06:12:53;8.73;;;8.13;;
8171;SDS011;4127;47.908;10.850;2023-08-24T06:15:20;8.27;;;7.57;;
8171;SDS011;4127;47.908;10.850;2023-08-24T06:17:50;7.73;;;7.13;;
8171;SDS011;4127;47.908;10.850;2023-08-24T06:20:18;8.27;;;7.67;;
8171;SDS011;4127;47.908;10.850;2023-08-24T06:22:46;7.47;;;6.90;;
8171;SDS011;4127;47.908;10.850;2023-08-24T06:25:13;7.83;;;7.23;;
8171;SDS011;4127;47.908;10.850;2023-08-24T06:27:40;9.00;;;8.27;;
8171;SDS011;4127;47.908;10.850;2023-08-24T06:30:07;8.50;;;7.83;;
8171;SDS011;4127;47.908;10.850;2023-08-24T06:32:35;8.10;;;7.50;;
8171;SDS011;4127;47.908;10.850;2023-08-24T06:35:03;8.70;;;8.00;;
8171;SDS011;4127;47.908;10.850;2023-08-24T06:37:30;9.10;;;8.40;;
8171;SDS011;4127;47.908;10.850;2023-08-24T06:39:57;9.02;;;8.20;;
8171;SDS011;4127;47.908;10.850;2023-08-24T06:42:24;9.88;;;8.90;;
8171;SDS011;4127;47.908;10.850;2023-08-24T06:44:51;8.05;;;7.43;;
8171;SDS011;4127;47.908;10.850;2023-08-24T06:47:18;7.90;;;7.20;;
8171;SDS011;4127;47.908;10.850;2023-08-24T06:49:44;8.15;;;7.45;;
8171;SDS011;4127;47.908;10.850;2023-08-24T06:52:11;7.65;;;6.97;;
8171;SDS011;4127;47.908;10.850;2023-08-24T06:54:38;8.70;;;7.78;;
8171;SDS011;4127;47.908;10.850;2023-08-24T06:57:05;8.05;;;7.35;;
8171;SDS011;4127;47.908;10.850;2023-08-24T06:59:32;8.43;;;7.30;;
8171;SDS011;4127;47.908;10.850;2023-08-24T07:02:02;7.85;;;7.20;;
8171;SDS011;4127;47.908;10.850;2023-08-24T07:04:30;8.00;;;7.28;;
8171;SDS011;4127;47.908;10.850;2023-08-24T07:06:57;7.63;;;7.03;;
8171;SDS011;4127;47.908;10.850;2023-08-24T07:09:24;7.78;;;7.18;;
8171;SDS011;4127;47.908;10.850;2023-08-24T07:11:51;8.57;;;7.75;;
8171;SDS011;4127;47.908;10.850;2023-08-24T07:14:18;8.65;;;7.95;;
8171;SDS011;4127;47.908;10.850;2023-08-24T07:16:45;9.32;;;8.38;;
8171;SDS011;4127;47.908;10.850;2023-08-24T07:19:12;8.95;;;8.05;;
8171;SDS011;4127;47.908;10.850;2023-08-24T07:21:40;8.27;;;7.57;;
8171;SDS011;4127;47.908;10.850;2023-08-24T07:24:07;9.88;;;7.20;;
8171;SDS011;4127;47.908;10.850;2023-08-24T07:26:34;8.65;;;7.85;;
8171;SDS011;4127;47.908;10.850;2023-08-24T07:29:01;8.88;;;7.93;;
8171;SDS011;4127;47.908;10.850;2023-08-24T07:31:28;7.55;;;6.95;;
8171;SDS011;4127;47.908;10.850;2023-08-24T07:33:55;8.13;;;7.38;;
8171;SDS011;4127;47.908;10.850;2023-08-24T07:36:22;8.23;;;7.38;;
8171;SDS011;4127;47.908;10.850;2023-08-24T07:38:49;8.65;;;7.13;;
8171;SDS011;4127;47.908;10.850;2023-08-24T07:41:16;7.60;;;6.90;;
8171;SDS011;4127;47.908;10.850;2023-08-24T07:43:44;7.78;;;7.07;;
8171;SDS011;4127;47.908;10.850;2023-08-24T07:46:11;8.23;;;6.90;;
8171;SDS011;4127;47.908;10.850;2023-08-24T07:48:38;10.25;;;7.00;;
8171;SDS011;4127;47.908;10.850;2023-08-24T07:51:06;8.35;;;7.15;;
8171;SDS011;4127;47.908;10.850;2023-08-24T07:53:34;7.75;;;6.97;;
8171;SDS011;4127;47.908;10.850;2023-08-24T07:56:01;7.22;;;6.63;;
8171;SDS011;4127;47.908;10.850;2023-08-24T07:58:28;7.32;;;6.72;;
8171;SDS011;4127;47.908;10.850;2023-08-24T08:00:58;7.63;;;6.25;;
8171;SDS011;4127;47.908;10.850;2023-08-24T08:03:26;8.27;;;7.07;;
8171;SDS011;4127;47.908;10.850;2023-08-24T08:05:53;7.78;;;6.10;;
8171;SDS011;4127;47.908;10.850;2023-08-24T08:08:21;7.13;;;6.53;;
8171;SDS011;4127;47.908;10.850;2023-08-24T08:10:55;6.97;;;6.28;;
8171;SDS011;4127;47.908;10.850;2023-08-24T08:13:26;7.15;;;6.22;;
8171;SDS011;4127;47.908;10.850;2023-08-24T08:16:04;6.15;;;5.57;;
8171;SDS011;4127;47.908;10.850;2023-08-24T08:18:32;6.75;;;6.15;;
8171;SDS011;4127;47.908;10.850;2023-08-24T08:21:00;6.03;;;5.53;;
8171;SDS011;4127;47.908;10.850;2023-08-24T08:23:28;6.00;;;5.50;;
8171;SDS011;4127;47.908;10.850;2023-08-24T08:25:55;6.28;;;5.78;;
8171;SDS011;4127;47.908;10.850;2023-08-24T08:28:22;5.63;;;5.13;;
8171;SDS011;4127;47.908;10.850;2023-08-24T08:30:48;7.05;;;5.38;;
8171;SDS011;4127;47.908;10.850;2023-08-24T08:33:16;7.38;;;5.95;;
8171;SDS011;4127;47.908;10.850;2023-08-24T08:35:43;5.57;;;5.00;;
8171;SDS011;4127;47.908;10.850;2023-08-24T08:38:10;5.75;;;5.25;;
8171;SDS011;4127;47.908;10.850;2023-08-24T08:40:37;7.40;;;5.32;;
8171;SDS011;4127;47.908;10.850;2023-08-24T08:43:04;6.93;;;5.28;;
8171;SDS011;4127;47.908;10.850;2023-08-24T08:45:32;5.13;;;4.57;;
8171;SDS011;4127;47.908;10.850;2023-08-24T08:47:59;6.07;;;5.43;;
8171;SDS011;4127;47.908;10.850;2023-08-24T08:50:27;7.13;;;5.05;;
8171;SDS011;4127;47.908;10.850;2023-08-24T08:52:57;7.28;;;4.95;;
8171;SDS011;4127;47.908;10.850;2023-08-24T08:55:25;6.10;;;5.30;;
8171;SDS011;4127;47.908;10.850;2023-08-24T08:57:53;7.32;;;4.60;;
8171;SDS011;4127;47.908;10.850;2023-08-24T09:00:24;6.20;;;4.82;;
8171;SDS011;4127;47.908;10.850;2023-08-24T09:02:52;11.77;;;5.47;;
8171;SDS011;4127;47.908;10.850;2023-08-24T09:05:19;5.88;;;5.13;;
8171;SDS011;4127;47.908;10.850;2023-08-24T09:07:47;6.35;;;5.30;;
8171;SDS011;4127;47.908;10.850;2023-08-24T09:10:14;7.80;;;5.07;;
8171;SDS011;4127;47.908;10.850;2023-08-24T09:12:41;6.60;;;5.00;;
8171;SDS011;4127;47.908;10.850;2023-08-24T09:15:08;6.35;;;5.10;;
8171;SDS011;4127;47.908;10.850;2023-08-24T09:17:36;6.65;;;4.65;;
8171;SDS011;4127;47.908;10.850;2023-08-24T09:20:09;6.07;;;4.82;;
8171;SDS011;4127;47.908;10.850;2023-08-24T09:22:37;6.15;;;5.28;;
8171;SDS011;4127;47.908;10.850;2023-08-24T09:25:05;4.57;;;4.18;;
8171;SDS011;4127;47.908;10.850;2023-08-24T09:27:34;5.75;;;4.82;;
8171;SDS011;4127;47.908;10.850;2023-08-24T09:30:01;6.25;;;4.75;;
8171;SDS011;4127;47.908;10.850;2023-08-24T09:32:29;6.78;;;4.72;;
8171;SDS011;4127;47.908;10.850;2023-08-24T09:35:19;7.35;;;5.05;;
8171;SDS011;4127;47.908;10.850;2023-08-24T09:37:49;5.28;;;4.40;;
8171;SDS011;4127;47.908;10.850;2023-08-24T09:40:16;7.45;;;5.07;;
8171;SDS011;4127;47.908;10.850;2023-08-24T09:42:50;5.03;;;4.18;;
8171;SDS011;4127;47.908;10.850;2023-08-24T09:45:17;5.05;;;4.55;;
8171;SDS011;4127;47.908;10.850;2023-08-24T09:47:45;6.03;;;5.05;;
8171;SDS011;4127;47.908;10.850;2023-08-24T09:50:21;5.28;;;4.80;;
8171;SDS011;4127;47.908;10.850;2023-08-24T09:52:49;7.03;;;4.80;;
8171;SDS011;4127;47.908;10.850;2023-08-24T09:55:20;5.13;;;4.65;;
8171;SDS011;4127;47.908;10.850;2023-08-24T09:57:48;6.65;;;4.80;;
8171;SDS011;4127;47.908;10.850;2023-08-24T10:00:19;4.70;;;4.28;;
8171;SDS011;4127;47.908;10.850;2023-08-24T10:02:51;6.30;;;4.78;;
8171;SDS011;4127;47.908;10.850;2023-08-24T10:05:21;5.47;;;4.38;;
8171;SDS011;4127;47.908;10.850;2023-08-24T10:08:06;5.20;;;4.70;;
8171;SDS011;4127;47.908;10.850;2023-08-24T10:10:35;4.43;;;4.03;;
8171;SDS011;4127;47.908;10.850;2023-08-24T10:13:08;6.20;;;4.43;;
8171;SDS011;4127;47.908;10.850;2023-08-24T10:15:44;4.88;;;4.38;;
8171;SDS011;4127;47.908;10.850;2023-08-24T10:18:14;6.68;;;4.30;;
8171;SDS011;4127;47.908;10.850;2023-08-24T10:20:43;4.65;;;3.80;;
8171;SDS011;4127;47.908;10.850;2023-08-24T10:23:11;4.43;;;3.63;;
8171;SDS011;4127;47.908;10.850;2023-08-24T10:25:40;4.97;;;4.47;;
8171;SDS011;4127;47.908;10.850;2023-08-24T10:28:10;5.07;;;4.57;;
8171;SDS011;4127;47.908;10.850;2023-08-24T10:30:38;5.80;;;4.82;;
8171;SDS011;4127;47.908;10.850;2023-08-24T10:33:06;6.60;;;4.10;;
8171;SDS011;4127;47.908;10.850;2023-08-24T10:35:34;4.45;;;4.05;;
8171;SDS011;4127;47.908;10.850;2023-08-24T10:38:02;6.85;;;4.15;;
8171;SDS011;4127;47.908;10.850;2023-08-24T10:40:32;4.32;;;3.92;;
8171;SDS011;4127;47.908;10.850;2023-08-24T10:43:03;8.20;;;4.10;;
8171;SDS011;4127;47.908;10.850;2023-08-24T10:45:53;6.25;;;4.10;;
8171;SDS011;4127;47.908;10.850;2023-08-24T10:48:28;6.05;;;4.15;;
8171;SDS011;4127;47.908;10.850;2023-08-24T10:51:18;6.15;;;4.13;;
8171;SDS011;4127;47.908;10.850;2023-08-24T10:53:53;6.15;;;3.90;;
8171;SDS011;4127;47.908;10.850;2023-08-24T10:56:24;4.25;;;3.63;;
8171;SDS011;4127;47.908;10.850;2023-08-24T11:04:24;5.93;;;3.60;;
8171;SDS011;4127;47.908;10.850;2023-08-24T11:06:52;3.92;;;3.63;;
8171;SDS011;4127;47.908;10.850;2023-08-24T11:09:21;5.88;;;4.07;;
8171;SDS011;4127;47.908;10.850;2023-08-24T11:11:59;3.70;;;3.35;;
8171;SDS011;4127;47.908;10.850;2023-08-24T11:14:27;4.05;;;3.55;;
8171;SDS011;4127;47.908;10.850;2023-08-24T11:16:58;5.85;;;3.60;;
8171;SDS011;4127;47.908;10.850;2023-08-24T11:19:27;4.15;;;3.63;;
8171;SDS011;4127;47.908;10.850;2023-08-24T11:21:53;5.22;;;3.58;;
8171;SDS011;4127;47.908;10.850;2023-08-24T11:24:21;4.97;;;3.70;;
8171;SDS011;4127;47.908;10.850;2023-08-24T11:26:49;7.93;;;4.35;;
8171;SDS011;4127;47.908;10.850;2023-08-24T11:29:16;5.38;;;3.63;;
8171;SDS011;4127;47.908;10.850;2023-08-24T11:31:45;10.48;;;4.45;;
8171;SDS011;4127;47.908;10.850;2023-08-24T11:34:16;6.63;;;3.63;;
8171;SDS011;4127;47.908;10.850;2023-08-24T11:36:43;6.07;;;3.80;;
8171;SDS011;4127;47.908;10.850;2023-08-24T11:39:17;6.38;;;3.95;;
8171;SDS011;4127;47.908;10.850;2023-08-24T11:44:46;9.85;;;4.43;;
8171;SDS011;4127;47.908;10.850;2023-08-24T11:47:16;7.20;;;3.88;;
8171;SDS011;4127;47.908;10.850;2023-08-24T11:49:46;7.28;;;4.20;;
8171;SDS011;4127;47.908;10.850;2023-08-24T11:52:13;4.13;;;3.65;;
8171;SDS011;4127;47.908;10.850;2023-08-24T11:54:42;6.45;;;3.90;;
8171;SDS011;4127;47.908;10.850;2023-08-24T11:57:10;7.70;;;4.13;;
8171;SDS011;4127;47.908;10.850;2023-08-24T11:59:38;5.70;;;3.80;;
8171;SDS011;4127;47.908;10.850;2023-08-24T12:02:06;5.70;;;3.92;;
8171;SDS011;4127;47.908;10.850;2023-08-24T12:04:39;7.05;;;4.28;;
8171;SDS011;4127;47.908;10.850;2023-08-24T12:07:10;8.52;;;3.97;;
8171;SDS011;4127;47.908;10.850;2023-08-24T12:09:41;6.35;;;3.85;;
8171;SDS011;4127;47.908;10.850;2023-08-24T12:12:15;6.35;;;3.72;;
8171;SDS011;4127;47.908;10.850;2023-08-24T12:14:43;9.75;;;3.83;;
8171;SDS011;4127;47.908;10.850;2023-08-24T12:17:10;5.07;;;3.58;;
8171;SDS011;4127;47.908;10.850;2023-08-24T12:19:41;8.07;;;3.70;;
8171;SDS011;4127;47.908;10.850;2023-08-24T12:22:15;10.48;;;3.90;;
8171;SDS011;4127;47.908;10.850;2023-08-24T12:24:43;8.23;;;3.38;;
8171;SDS011;4127;47.908;10.850;2023-08-24T12:29:49;6.65;;;3.80;;
8171;SDS011;4127;47.908;10.850;2023-08-24T12:32:17;6.63;;;4.00;;
8171;SDS011;4127;47.908;10.850;2023-08-24T12:34:53;7.47;;;3.83;;
8171;SDS011;4127;47.908;10.850;2023-08-24T12:37:21;6.13;;;3.72;;
8171;SDS011;4127;47.908;10.850;2023-08-24T12:39:48;7.95;;;3.33;;
8171;SDS011;4127;47.908;10.850;2023-08-24T12:42:15;5.85;;;3.38;;
8171;SDS011;4127;47.908;10.850;2023-08-24T12:44:42;5.30;;;3.63;;
8171;SDS011;4127;47.908;10.850;2023-08-24T12:47:09;5.03;;;3.30;;
8171;SDS011;4127;47.908;10.850;2023-08-24T12:49:36;4.15;;;3.50;;
8171;SDS011;4127;47.908;10.850;2023-08-24T12:52:03;9.50;;;4.38;;
8171;SDS011;4127;47.908;10.850;2023-08-24T12:54:30;6.20;;;3.38;;
8171;SDS011;4127;47.908;10.850;2023-08-24T12:56:57;5.43;;;3.75;;
8171;SDS011;4127;47.908;10.850;2023-08-24T12:59:24;8.52;;;4.15;;
8171;SDS011;4127;47.908;10.850;2023-08-24T13:01:51;6.72;;;3.97;;
8171;SDS011;4127;47.908;10.850;2023-08-24T13:04:18;7.82;;;4.45;;
8171;SDS011;4127;47.908;10.850;2023-08-24T13:06:45;8.30;;;4.25;;
8171;SDS011;4127;47.908;10.850;2023-08-24T13:09:12;6.38;;;3.60;;
8171;SDS011;4127;47.908;10.850;2023-08-24T13:11:40;6.40;;;3.78;;
8171;SDS011;4127;47.908;10.850;2023-08-24T13:14:06;5.45;;;3.25;;
8171;SDS011;4127;47.908;10.850;2023-08-24T13:16:33;4.95;;;3.15;;
8171;SDS011;4127;47.908;10.850;2023-08-24T13:19:00;6.28;;;3.38;;
8171;SDS011;4127;47.908;10.850;2023-08-24T13:21:27;6.70;;;3.63;;
8171;SDS011;4127;47.908;10.850;2023-08-24T13:23:54;6.75;;;3.60;;
8171;SDS011;4127;47.908;10.850;2023-08-24T13:26:21;7.38;;;3.63;;
8171;SDS011;4127;47.908;10.850;2023-08-24T13:28:51;6.22;;;3.72;;
8171;SDS011;4127;47.908;10.850;2023-08-24T13:31:18;7.80;;;3.30;;
8171;SDS011;4127;47.908;10.850;2023-08-24T13:33:45;8.52;;;4.05;;
8171;SDS011;4127;47.908;10.850;2023-08-24T13:36:12;7.22;;;3.60;;
8171;SDS011;4127;47.908;10.850;2023-08-24T13:38:39;13.27;;;4.00;;
8171;SDS011;4127;47.908;10.850;2023-08-24T13:41:06;10.98;;;4.18;;
8171;SDS011;4127;47.908;10.850;2023-08-24T13:43:33;8.88;;;3.53;;
8171;SDS011;4127;47.908;10.850;2023-08-24T13:46:00;9.38;;;3.88;;
8171;SDS011;4127;47.908;10.850;2023-08-24T13:48:30;9.85;;;3.72;;
8171;SDS011;4127;47.908;10.850;2023-08-24T13:51:00;9.05;;;3.67;;
8171;SDS011;4127;47.908;10.850;2023-08-24T13:53:27;8.80;;;4.30;;
8171;SDS011;4127;47.908;10.850;2023-08-24T13:55:54;8.95;;;3.53;;
8171;SDS011;4127;47.908;10.850;2023-08-24T13:58:21;7.35;;;4.03;;
8171;SDS011;4127;47.908;10.850;2023-08-24T14:00:54;7.30;;;3.75;;
8171;SDS011;4127;47.908;10.850;2023-08-24T14:03:21;8.82;;;3.60;;
8171;SDS011;4127;47.908;10.850;2023-08-24T14:05:49;10.82;;;3.97;;
8171;SDS011;4127;47.908;10.850;2023-08-24T14:08:18;9.57;;;4.22;;
8171;SDS011;4127;47.908;10.850;2023-08-24T14:10:45;8.23;;;3.97;;
8171;SDS011;4127;47.908;10.850;2023-08-24T14:13:15;9.63;;;4.10;;
8171;SDS011;4127;47.908;10.850;2023-08-24T14:15:41;10.18;;;4.35;;
8171;SDS011;4127;47.908;10.850;2023-08-24T14:18:11;11.65;;;4.50;;
8171;SDS011;4127;47.908;10.850;2023-08-24T14:20:39;9.82;;;3.90;;
8171;SDS011;4127;47.908;10.850;2023-08-24T14:23:05;7.72;;;4.20;;
8171;SDS011;4127;47.908;10.850;2023-08-24T14:25:33;8.15;;;3.83;;
8171;SDS011;4127;47.908;10.850;2023-08-24T14:28:00;8.98;;;3.70;;
8171;SDS011;4127;47.908;10.850;2023-08-24T14:30:32;7.60;;;3.60;;
8171;SDS011;4127;47.908;10.850;2023-08-24T14:32:59;10.15;;;3.92;;
8171;SDS011;4127;47.908;10.850;2023-08-24T14:35:26;8.30;;;3.65;;
8171;SDS011;4127;47.908;10.850;2023-08-24T14:37:55;16.83;;;4.88;;
8171;SDS011;4127;47.908;10.850;2023-08-24T14:40:23;13.98;;;4.97;;
8171;SDS011;4127;47.908;10.850;2023-08-24T14:42:49;11.55;;;4.55;;
8171;SDS011;4127;47.908;10.850;2023-08-24T14:45:16;10.75;;;3.90;;
8171;SDS011;4127;47.908;10.850;2023-08-24T14:47:44;8.73;;;3.55;;
8171;SDS011;4127;47.908;10.850;2023-08-24T14:50:13;9.55;;;4.10;;
8171;SDS011;4127;47.908;10.850;2023-08-24T14:52:40;15.30;;;4.63;;
8171;SDS011;4127;47.908;10.850;2023-08-24T14:55:07;11.70;;;4.07;;
8171;SDS011;4127;47.908;10.850;2023-08-24T14:57:36;13.55;;;4.30;;
8171;SDS011;4127;47.908;10.850;2023-08-24T15:00:02;9.90;;;3.80;;
8171;SDS011;4127;47.908;10.850;2023-08-24T15:02:31;10.70;;;4.78;;
8171;SDS011;4127;47.908;10.850;2023-08-24T15:04:59;10.65;;;3.80;;
8171;SDS011;4127;47.908;10.850;2023-08-24T15:07:26;9.77;;;4.13;;
8171;SDS011;4127;47.908;10.850;2023-08-24T15:09:53;9.13;;;3.58;;
8171;SDS011;4127;47.908;10.850;2023-08-24T15:12:21;11.57;;;4.95;;
8171;SDS011;4127;47.908;10.850;2023-08-24T15:15:01;10.82;;;4.10;;
8171;SDS011;4127;47.908;10.850;2023-08-24T15:17:30;10.32;;;3.75;;
8171;SDS011;4127;47.908;10.850;2023-08-24T15:19:57;9.48;;;3.40;;
8171;SDS011;4127;47.908;10.850;2023-08-24T15:22:24;10.30;;;3.85;;
8171;SDS011;4127;47.908;10.850;2023-08-24T15:24:55;12.57;;;4.18;;